Time;durP1;ratioP1;P1;durP2;ratioP2;P2;SDS_P1;SDS_P2;PMS_P1;PMS_P2;Temp;Humidity;BMP_temperature;BMP_pressure;BME280_temperature;BME280_humidity;BME280_pressure;Samples;Min_cycle;Max_cycle;Signal;HPM_P1;HPM_P2
2021/04/24 00:00:25;;;;;;;6.40;4.10;;;9.00;59.10;;;;;;5092854;28;20107;-63
2021/04/24 00:02:51;;;;;;;7.13;4.75;;;8.90;58.90;;;;;;5087932;28;20039;-62
2021/04/24 00:05:19;;;;;;;6.70;3.85;;;9.00;58.90;;;;;;5105396;28;20354;-63
2021/04/24 00:07:45;;;;;;;8.23;4.22;;;9.00;58.90;;;;;;5095820;28;20051;-62
2021/04/24 00:10:11;;;;;;;5.72;3.70;;;8.90;58.80;;;;;;5092814;28;20024;-63
2021/04/24 00:12:37;;;;;;;8.73;4.35;;;8.90;58.90;;;;;;5086967;28;20020;-63
2021/04/24 00:15:11;;;;;;;7.28;4.20;;;8.90;59.00;;;;;;5092920;28;20099;-63
2021/04/24 00:17:37;;;;;;;7.97;3.97;;;8.80;59.00;;;;;;5093116;28;20033;-63
2021/04/24 00:20:06;;;;;;;5.28;4.03;;;8.80;59.20;;;;;;5092819;28;20082;-63
2021/04/24 00:22:31;;;;;;;5.55;3.78;;;8.80;59.10;;;;;;5093705;28;20013;-62
2021/04/24 00:24:57;;;;;;;6.50;4.10;;;8.70;58.90;;;;;;5097056;28;20045;-62
2021/04/24 00:27:23;;;;;;;5.90;3.72;;;8.70;59.10;;;;;;5096924;28;20039;-62
2021/04/24 00:29:49;;;;;;;6.57;4.05;;;8.70;59.10;;;;;;5095818;28;20077;-63
2021/04/24 00:32:14;;;;;;;4.55;3.80;;;8.60;59.20;;;;;;5096694;28;20371;-63
2021/04/24 00:34:40;;;;;;;6.18;4.50;;;8.60;59.30;;;;;;5096809;28;20589;-63
2021/04/24 00:37:05;;;;;;;7.57;4.90;;;8.60;59.50;;;;;;5096780;28;20456;-63
2021/04/24 00:39:31;;;;;;;9.23;4.18;;;8.60;59.50;;;;;;5096826;28;20367;-63
2021/04/24 00:41:57;;;;;;;6.65;4.38;;;8.60;59.60;;;;;;5096909;28;20034;-63
2021/04/24 00:44:22;;;;;;;7.65;4.28;;;8.60;59.70;;;;;;5096590;28;20026;-63
2021/04/24 00:46:48;;;;;;;6.70;4.75;;;8.70;59.60;;;;;;5085892;28;20042;-63
2021/04/24 00:49:14;;;;;;;6.82;4.25;;;8.70;59.60;;;;;;5086445;28;20052;-63
2021/04/24 00:51:39;;;;;;;6.93;4.13;;;8.70;59.60;;;;;;5096662;28;20024;-63
2021/04/24 00:54:06;;;;;;;8.45;4.55;;;8.70;59.60;;;;;;5096500;28;20020;-63
2021/04/24 00:56:33;;;;;;;7.50;4.95;;;8.70;59.60;;;;;;5093024;28;20413;-63
2021/04/24 00:59:00;;;;;;;5.05;4.25;;;8.70;59.60;;;;;;5093619;28;20026;-63
2021/04/24 01:01:25;;;;;;;5.43;4.05;;;8.70;59.70;;;;;;5096435;28;20115;-63
2021/04/24 01:03:51;;;;;;;7.38;4.80;;;8.70;59.60;;;;;;5085035;28;20108;-63
2021/04/24 01:06:17;;;;;;;8.68;5.85;;;8.70;59.50;;;;;;5095308;28;20050;-63
2021/04/24 01:08:43;;;;;;;12.98;7.55;;;8.60;59.60;;;;;;5096285;28;20028;-63
2021/04/24 01:11:09;;;;;;;8.98;5.65;;;8.60;59.50;;;;;;5096413;28;20028;-63
2021/04/24 01:13:34;;;;;;;7.93;4.85;;;8.60;59.90;;;;;;5096636;28;20428;-63
2021/04/24 01:16:00;;;;;;;7.07;4.43;;;8.50;59.80;;;;;;5096341;28;20351;-63
2021/04/24 01:18:26;;;;;;;5.63;3.67;;;8.60;59.80;;;;;;5081610;28;20031;-63
2021/04/24 01:20:55;;;;;;;6.63;4.03;;;8.60;59.60;;;;;;5090127;28;20032;-63
2021/04/24 01:23:21;;;;;;;5.60;4.30;;;8.60;59.60;;;;;;5095921;28;20035;-63
2021/04/24 01:25:47;;;;;;;5.97;4.13;;;8.50;59.60;;;;;;5095918;28;20028;-63
2021/04/24 01:28:13;;;;;;;5.43;3.88;;;8.50;59.80;;;;;;5096159;28;20025;-63
2021/04/24 01:30:41;;;;;;;6.60;4.10;;;8.50;59.80;;;;;;5095885;28;20024;-63
2021/04/24 01:33:09;;;;;;;6.07;4.25;;;8.50;59.70;;;;;;5093357;28;20030;-63
2021/04/24 01:35:37;;;;;;;9.82;5.22;;;8.40;59.80;;;;;;5087890;28;20028;-63
2021/04/24 01:38:03;;;;;;;6.53;4.68;;;8.40;59.90;;;;;;5081093;28;20484;-63
2021/04/24 01:40:30;;;;;;;8.23;4.75;;;8.30;59.80;;;;;;5095770;28;20058;-63
2021/04/24 01:42:56;;;;;;;7.75;4.50;;;8.40;60.00;;;;;;5095594;28;20027;-63
2021/04/24 01:45:23;;;;;;;8.10;4.25;;;8.40;59.70;;;;;;5077246;28;20024;-63
2021/04/24 01:47:49;;;;;;;5.53;3.58;;;8.30;59.70;;;;;;5094655;28;20016;-63
2021/04/24 01:50:17;;;;;;;7.43;4.20;;;8.30;59.70;;;;;;5095143;28;20067;-63
2021/04/24 01:52:44;;;;;;;5.85;4.20;;;8.30;59.80;;;;;;5095481;28;20016;-63
2021/04/24 01:55:14;;;;;;;5.25;3.88;;;8.30;59.90;;;;;;5089338;28;20024;-63
2021/04/24 01:57:41;;;;;;;9.43;4.28;;;8.30;59.90;;;;;;5095277;28;20028;-63
2021/04/24 02:00:11;;;;;;;5.25;4.40;;;8.30;59.70;;;;;;5095295;28;20028;-63
2021/04/24 02:02:37;;;;;;;7.80;4.65;;;8.30;59.60;;;;;;5095181;28;20035;-63
2021/04/24 02:05:11;;;;;;;5.85;3.90;;;8.30;59.60;;;;;;5095046;28;20468;-63
2021/04/24 02:07:37;;;;;;;4.32;3.35;;;8.30;59.50;;;;;;5095132;28;20028;-63
2021/04/24 02:10:10;;;;;;;5.20;3.53;;;8.30;59.60;;;;;;5094829;28;20434;-63
2021/04/24 02:12:36;;;;;;;4.20;3.35;;;8.30;59.50;;;;;;5087122;28;20012;-63
2021/04/24 02:15:03;;;;;;;8.25;4.43;;;8.20;59.50;;;;;;5083168;28;20024;-63
2021/04/24 02:17:29;;;;;;;5.75;3.90;;;8.20;59.40;;;;;;5093289;28;20436;-63
2021/04/24 02:19:55;;;;;;;6.95;4.05;;;8.10;59.40;;;;;;5092255;28;20048;-63
2021/04/24 02:22:22;;;;;;;4.93;3.35;;;8.10;59.40;;;;;;5094256;28;20487;-63
2021/04/24 02:24:58;;;;;;;5.22;3.92;;;8.00;59.50;;;;;;5094227;28;20031;-63
2021/04/24 02:27:24;;;;;;;4.60;3.83;;;7.90;59.70;;;;;;5093138;28;20031;-63
2021/04/24 02:29:51;;;;;;;5.93;4.32;;;7.80;59.80;;;;;;5089360;28;20028;-63
2021/04/24 02:32:17;;;;;;;6.80;3.83;;;7.80;59.90;;;;;;5094172;28;20495;-63
2021/04/24 02:34:46;;;;;;;6.55;3.83;;;7.70;60.00;;;;;;5093952;28;20051;-63
2021/04/24 02:37:14;;;;;;;9.30;4.07;;;7.70;59.90;;;;;;5093924;28;20028;-63
2021/04/24 02:39:42;;;;;;;4.15;3.58;;;7.70;59.90;;;;;;5092477;28;20020;-63
2021/04/24 02:42:11;;;;;;;7.13;4.22;;;7.70;60.30;;;;;;5093836;28;20459;-63
2021/04/24 02:44:36;;;;;;;6.18;3.97;;;7.70;60.20;;;;;;5091036;28;20016;-63
2021/04/24 02:47:03;;;;;;;5.93;3.83;;;7.80;60.30;;;;;;5082299;28;20027;-63
2021/04/24 02:49:29;;;;;;;5.57;3.83;;;7.80;60.40;;;;;;5093594;28;20052;-63
2021/04/24 02:51:55;;;;;;;5.43;3.97;;;7.80;60.10;;;;;;5093528;28;20074;-63
2021/04/24 02:54:22;;;;;;;6.45;4.55;;;7.90;60.10;;;;;;5093561;28;20070;-63
2021/04/24 02:56:49;;;;;;;6.85;4.30;;;7.90;60.20;;;;;;5093485;28;20390;-63
2021/04/24 02:59:15;;;;;;;5.00;3.83;;;8.00;60.10;;;;;;5093502;28;20024;-63
2021/04/24 03:01:41;;;;;;;7.32;4.07;;;8.10;60.00;;;;;;5090041;28;20023;-63
2021/04/24 03:04:07;;;;;;;6.45;3.92;;;8.10;59.60;;;;;;5087062;28;20032;-63
2021/04/24 03:06:32;;;;;;;7.05;4.10;;;8.00;59.60;;;;;;5093741;28;20486;-63
2021/04/24 03:08:58;;;;;;;5.03;4.00;;;8.00;59.60;;;;;;5093488;28;20471;-63
2021/04/24 03:11:24;;;;;;;6.47;3.90;;;7.90;59.70;;;;;;5093271;28;20036;-63
2021/04/24 03:13:49;;;;;;;6.57;3.92;;;7.90;60.00;;;;;;5093173;28;20028;-63
2021/04/24 03:16:15;;;;;;;5.30;3.80;;;7.90;60.10;;;;;;5089890;28;20024;-63
2021/04/24 03:18:41;;;;;;;4.70;3.50;;;7.90;60.30;;;;;;5089829;28;20073;-63
2021/04/24 03:21:07;;;;;;;4.97;4.03;;;7.90;60.30;;;;;;5082283;28;20020;-62
2021/04/24 03:23:33;;;;;;;6.40;4.80;;;8.00;60.80;;;;;;5093707;28;20056;-62
2021/04/24 03:25:58;;;;;;;6.30;4.00;;;8.10;60.30;;;;;;5093201;28;20379;-62
2021/04/24 03:28:24;;;;;;;7.53;4.60;;;8.30;60.30;;;;;;5076329;28;20020;-63
2021/04/24 03:30:50;;;;;;;5.60;4.15;;;8.40;60.20;;;;;;5092996;28;20024;-63
2021/04/24 03:33:15;;;;;;;5.75;4.05;;;8.60;60.00;;;;;;5093112;28;20468;-63
2021/04/24 03:35:41;;;;;;;6.07;4.10;;;8.70;59.90;;;;;;5089812;28;20024;-63
2021/04/24 03:38:07;;;;;;;6.22;4.22;;;8.80;59.40;;;;;;5088895;28;20022;-63
2021/04/24 03:40:34;;;;;;;5.72;4.55;;;9.00;59.60;;;;;;5093201;28;20119;-63
2021/04/24 03:42:59;;;;;;;6.53;4.63;;;9.10;59.40;;;;;;5093075;28;20059;-63
2021/04/24 03:45:25;;;;;;;7.95;4.95;;;9.20;59.30;;;;;;5090944;28;20075;-63
2021/04/24 03:47:52;;;;;;;7.25;4.55;;;9.40;59.30;;;;;;5088111;28;20024;-62
2021/04/24 03:50:19;;;;;;;5.78;4.28;;;9.50;59.10;;;;;;5092332;28;20051;-63
2021/04/24 03:52:46;;;;;;;6.38;4.30;;;9.70;59.20;;;;;;5088916;28;20371;-63
2021/04/24 03:55:13;;;;;;;6.43;4.70;;;9.80;58.90;;;;;;5082464;28;20129;-63
2021/04/24 03:57:38;;;;;;;5.93;4.20;;;10.00;58.90;;;;;;5092313;28;20490;-63
2021/04/24 04:00:08;;;;;;;6.30;4.07;;;10.10;58.80;;;;;;5092597;28;20024;-63
2021/04/24 04:02:51;;;;;;;6.68;4.68;;;10.40;58.80;;;;;;5092618;28;20043;-63
2021/04/24 04:05:18;;;;;;;6.10;4.30;;;10.60;58.80;;;;;;5083395;28;20035;-63
2021/04/24 04:07:45;;;;;;;5.30;3.88;;;10.90;59.10;;;;;;5075524;28;20511;-63
2021/04/24 04:10:15;;;;;;;6.03;4.07;;;11.20;58.70;;;;;;5084344;28;20064;-63
2021/04/24 04:12:41;;;;;;;6.78;4.30;;;11.60;57.80;;;;;;5090010;28;20016;-63
2021/04/24 04:15:08;;;;;;;5.95;4.20;;;11.90;57.00;;;;;;5081667;28;20028;-63
2021/04/24 04:17:35;;;;;;;4.50;3.67;;;12.10;55.80;;;;;;5092463;28;20032;-63
2021/04/24 04:20:01;;;;;;;5.00;3.50;;;12.30;55.20;;;;;;5092508;28;20443;-63
2021/04/24 04:22:27;;;;;;;5.57;3.55;;;12.60;54.80;;;;;;5092398;28;20012;-63
2021/04/24 04:24:52;;;;;;;5.65;3.15;;;12.90;54.10;;;;;;5092382;28;20145;-63
2021/04/24 04:27:18;;;;;;;5.70;3.55;;;13.10;53.40;;;;;;5083735;28;20099;-63
2021/04/24 04:29:44;;;;;;;5.20;3.42;;;13.30;52.70;;;;;;5087082;28;20032;-62
2021/04/24 04:32:09;;;;;;;3.80;3.25;;;13.50;52.60;;;;;;5092185;28;20120;-63
2021/04/24 04:34:35;;;;;;;4.47;3.13;;;13.60;52.10;;;;;;5091739;28;20016;-63
2021/04/24 04:37:00;;;;;;;4.93;2.90;;;13.80;52.00;;;;;;5092268;28;20435;-63
2021/04/24 04:39:26;;;;;;;3.35;2.88;;;14.20;51.90;;;;;;5092207;28;20468;-63
2021/04/24 04:41:52;;;;;;;5.72;3.25;;;14.70;51.40;;;;;;5092165;28;20073;-63
2021/04/24 04:44:18;;;;;;;4.55;2.92;;;15.00;50.40;;;;;;5086143;28;20124;-62
2021/04/24 04:46:43;;;;;;;3.78;2.95;;;15.20;49.60;;;;;;5092251;28;20047;-63
2021/04/24 04:49:09;;;;;;;4.15;3.05;;;15.40;49.50;;;;;;5091617;28;20044;-63
2021/04/24 04:51:35;;;;;;;2.92;2.60;;;15.70;49.50;;;;;;5092135;28;20028;-63
2021/04/24 04:54:00;;;;;;;3.17;2.80;;;16.00;49.20;;;;;;5089615;28;20016;-63
2021/04/24 04:56:26;;;;;;;4.72;2.50;;;16.50;48.70;;;;;;5078027;28;20422;-62
2021/04/24 04:58:52;;;;;;;4.20;2.97;;;16.80;48.00;;;;;;5090214;28;20020;-63
2021/04/24 05:01:18;;;;;;;3.45;2.80;;;16.80;47.20;;;;;;5083563;28;20032;-63
2021/04/24 05:03:44;;;;;;;2.92;2.63;;;16.60;46.80;;;;;;5081416;28;20040;-63
2021/04/24 05:06:10;;;;;;;3.80;2.65;;;16.30;47.20;;;;;;5091635;28;20426;-63
2021/04/24 05:08:36;;;;;;;3.13;2.50;;;16.20;47.20;;;;;;5092037;28;20036;-63
2021/04/24 05:11:03;;;;;;;3.50;2.63;;;16.00;46.90;;;;;;5093808;28;20049;-63
2021/04/24 05:13:30;;;;;;;3.95;2.85;;;15.70;46.40;;;;;;5086295;28;20077;-63
2021/04/24 05:15:55;;;;;;;3.53;2.83;;;15.20;47.00;;;;;;5091782;28;20474;-63
2021/04/24 05:18:22;;;;;;;4.25;2.28;;;14.80;47.40;;;;;;5089548;28;20022;-63
2021/04/24 05:20:48;;;;;;;3.28;2.47;;;14.30;47.40;;;;;;5095533;28;20162;-62
2021/04/24 05:23:13;;;;;;;2.45;2.25;;;13.80;48.10;;;;;;5095410;28;20126;-62
2021/04/24 05:25:39;;;;;;;3.47;2.50;;;13.50;48.70;;;;;;5095769;28;20482;-63
2021/04/24 05:28:05;;;;;;;2.83;2.45;;;13.30;49.00;;;;;;5095273;28;20141;-63
2021/04/24 05:30:31;;;;;;;4.45;3.15;;;13.30;49.10;;;;;;5095573;28;20115;-63
2021/04/24 05:32:58;;;;;;;4.90;3.00;;;13.10;49.00;;;;;;5094969;28;20016;-63
2021/04/24 05:35:25;;;;;;;3.70;2.58;;;13.00;49.30;;;;;;5085624;28;20040;-63
2021/04/24 05:37:51;;;;;;;4.50;2.60;;;12.80;49.70;;;;;;5090535;28;20028;-63
2021/04/24 05:40:17;;;;;;;4.60;3.08;;;12.80;50.00;;;;;;5094903;28;20027;-63
2021/04/24 05:42:42;;;;;;;4.60;3.10;;;12.70;50.00;;;;;;5095046;28;20028;-63
2021/04/24 05:45:13;;;;;;;3.85;3.03;;;12.60;50.50;;;;;;5094908;28;20028;-63
2021/04/24 05:47:45;;;;;;;4.45;2.85;;;12.70;50.50;;;;;;5076811;28;20031;-63
2021/04/24 05:50:12;;;;;;;3.83;3.00;;;12.60;50.60;;;;;;5094696;28;20097;-63
2021/04/24 05:52:38;;;;;;;3.38;2.78;;;12.60;50.90;;;;;;5088958;28;20034;-62
2021/04/24 05:55:06;;;;;;;3.40;2.70;;;12.50;50.80;;;;;;5094846;28;20099;-63
2021/04/24 05:57:32;;;;;;;2.90;2.60;;;12.40;51.00;;;;;;5094711;28;20012;-63
2021/04/24 05:59:58;;;;;;;3.83;2.80;;;12.30;51.30;;;;;;5094790;28;20060;-63
2021/04/24 06:02:24;;;;;;;4.35;2.70;;;12.30;51.50;;;;;;5094253;28;20060;-63
2021/04/24 06:04:49;;;;;;;4.40;3.05;;;12.30;51.70;;;;;;5094576;28;20063;-63
2021/04/24 06:07:15;;;;;;;4.15;2.90;;;12.30;52.10;;;;;;5094525;28;20059;-63
2021/04/24 06:09:40;;;;;;;3.17;2.60;;;12.40;52.20;;;;;;5082855;28;20107;-63
2021/04/24 06:12:07;;;;;;;2.85;2.50;;;12.50;52.30;;;;;;5092066;28;20045;-63
2021/04/24 06:14:33;;;;;;;3.17;2.88;;;12.50;52.20;;;;;;5094417;28;20021;-63
2021/04/24 06:16:59;;;;;;;3.60;3.08;;;12.50;52.30;;;;;;5094551;28;20103;-65
2021/04/24 06:19:28;;;;;;;3.63;2.92;;;12.50;52.50;;;;;;5094313;28;20111;-63
2021/04/24 06:21:54;;;;;;;3.28;2.65;;;12.50;53.00;;;;;;5094140;28;20044;-63
2021/04/24 06:24:20;;;;;;;3.40;2.80;;;12.60;52.80;;;;;;5094209;28;20403;-63
2021/04/24 06:26:47;;;;;;;3.78;2.85;;;12.70;52.80;;;;;;5088527;28;20059;-63
2021/04/24 06:29:13;;;;;;;3.22;2.67;;;12.70;52.50;;;;;;5094180;28;20027;-63
2021/04/24 06:31:39;;;;;;;3.60;2.97;;;12.70;52.40;;;;;;5092695;28;20028;-63
2021/04/24 06:34:05;;;;;;;3.08;2.72;;;12.80;52.50;;;;;;5082537;28;20365;-63
2021/04/24 06:36:31;;;;;;;3.83;2.70;;;12.70;52.50;;;;;;5092565;28;20038;-63
2021/04/24 06:38:58;;;;;;;4.95;2.75;;;12.70;52.50;;;;;;5092263;28;20365;-63
2021/04/24 06:41:24;;;;;;;3.80;2.70;;;12.70;52.50;;;;;;5092422;28;20036;-62
2021/04/24 06:43:49;;;;;;;3.95;2.90;;;12.70;52.20;;;;;;5080785;28;20472;-63
2021/04/24 06:46:15;;;;;;;4.70;3.10;;;12.70;52.10;;;;;;5092403;28;20035;-62
2021/04/24 06:48:41;;;;;;;5.03;3.10;;;12.70;52.10;;;;;;5090075;28;20032;-63
2021/04/24 06:51:06;;;;;;;4.30;3.22;;;12.70;51.90;;;;;;5091745;28;20557;-63
2021/04/24 06:53:32;;;;;;;4.22;2.92;;;12.60;51.80;;;;;;5091937;28;20016;-63
2021/04/24 06:55:58;;;;;;;3.30;2.83;;;12.50;51.70;;;;;;5092771;28;20016;-63
2021/04/24 06:58:25;;;;;;;4.10;2.83;;;12.30;51.90;;;;;;5092238;28;20023;-64
2021/04/24 07:00:55;;;;;;;3.40;2.55;;;12.10;52.30;;;;;;5087067;28;20028;-63
2021/04/24 07:03:24;;;;;;;3.97;2.55;;;11.80;52.70;;;;;;5083842;28;20024;-63
2021/04/24 07:05:50;;;;;;;4.15;2.70;;;11.40;53.90;;;;;;5081409;28;20112;-63
2021/04/24 07:08:16;;;;;;;2.85;2.17;;;11.10;55.00;;;;;;5092046;28;20099;-63
2021/04/24 07:10:42;;;;;;;3.75;2.53;;;10.80;55.50;;;;;;5093705;28;20030;-63
2021/04/24 07:13:07;;;;;;;3.45;2.83;;;10.50;56.20;;;;;;5093208;28;20028;-63
2021/04/24 07:15:33;;;;;;;3.75;2.42;;;10.30;56.90;;;;;;5091457;28;20430;-63
2021/04/24 07:17:59;;;;;;;3.70;2.95;;;10.20;57.70;;;;;;5084013;28;20016;-63
2021/04/24 07:20:24;;;;;;;5.53;3.50;;;10.10;58.40;;;;;;5093131;28;20020;-63
2021/04/24 07:22:50;;;;;;;4.93;3.45;;;10.20;58.80;;;;;;5093027;28;20240;-63
2021/04/24 07:25:16;;;;;;;4.93;3.70;;;10.30;59.40;;;;;;5092892;28;20050;-63
2021/04/24 07:27:42;;;;;;;4.75;3.53;;;10.30;59.30;;;;;;5093072;28;20028;-63
2021/04/24 07:30:09;;;;;;;3.75;3.10;;;10.50;59.20;;;;;;5092886;28;20440;-63
2021/04/24 07:32:36;;;;;;;3.53;3.10;;;10.60;59.50;;;;;;5091813;28;20032;-63
2021/04/24 07:35:03;;;;;;;3.97;3.05;;;10.70;59.30;;;;;;5084131;28;20036;-63
2021/04/24 07:37:29;;;;;;;3.78;2.70;;;10.90;59.10;;;;;;5092789;28;20373;-63
2021/04/24 07:39:55;;;;;;;3.85;2.92;;;11.10;58.20;;;;;;5092804;28;20051;-64
2021/04/24 07:42:21;;;;;;;4.97;3.13;;;11.30;57.80;;;;;;5092638;28;20047;-63
2021/04/24 07:44:47;;;;;;;3.58;2.80;;;11.50;57.50;;;;;;5094156;28;20028;-63
2021/04/24 07:47:13;;;;;;;4.75;2.97;;;11.60;56.90;;;;;;5102323;28;20070;-63
2021/04/24 07:49:39;;;;;;;3.88;3.13;;;11.80;56.30;;;;;;5085635;28;20090;-64
2021/04/24 07:52:08;;;;;;;4.35;2.65;;;11.90;56.00;;;;;;5080433;28;20085;-63
2021/04/24 07:54:34;;;;;;;4.45;3.20;;;11.90;55.40;;;;;;5092763;28;20036;-63
2021/04/24 07:57:00;;;;;;;3.80;3.00;;;11.80;55.30;;;;;;5086291;28;20017;-63
2021/04/24 07:59:27;;;;;;;3.97;3.17;;;11.80;55.10;;;;;;5084696;28;20035;-63
2021/04/24 08:01:52;;;;;;;4.40;3.00;;;11.70;54.90;;;;;;5090262;28;20035;-63
2021/04/24 08:04:18;;;;;;;5.57;2.80;;;11.60;55.00;;;;;;5080886;28;20032;-63
2021/04/24 08:06:44;;;;;;;3.28;2.78;;;11.60;54.90;;;;;;5092637;28;20088;-63
2021/04/24 08:09:09;;;;;;;3.38;2.65;;;11.50;54.50;;;;;;5086677;28;20118;-63
2021/04/24 08:11:36;;;;;;;4.55;2.63;;;11.50;54.60;;;;;;5091242;28;20032;-63
2021/04/24 08:14:01;;;;;;;3.67;2.60;;;11.50;54.90;;;;;;5091848;28;20414;-63
2021/04/24 08:16:27;;;;;;;3.72;2.53;;;11.50;54.80;;;;;;5079045;28;20095;-63
2021/04/24 08:18:53;;;;;;;6.43;3.30;;;11.60;54.00;;;;;;5088084;28;20476;-63
2021/04/24 08:21:20;;;;;;;3.92;2.63;;;11.70;53.80;;;;;;5092700;28;20540;-63
2021/04/24 08:23:46;;;;;;;3.97;2.00;;;11.80;53.30;;;;;;5088528;28;20522;-63
2021/04/24 08:26:12;;;;;;;3.88;2.58;;;11.70;52.20;;;;;;5090415;28;20036;-63
2021/04/24 08:28:37;;;;;;;3.58;2.13;;;11.60;52.40;;;;;;5092354;28;20034;-63
2021/04/24 08:31:03;;;;;;;5.57;2.40;;;11.50;52.30;;;;;;5087659;28;20020;-63
2021/04/24 08:33:29;;;;;;;3.65;2.78;;;11.40;52.20;;;;;;5071400;28;20081;-63
2021/04/24 08:35:55;;;;;;;2.85;2.13;;;11.40;51.90;;;;;;5092241;28;20074;-63
2021/04/24 08:38:20;;;;;;;2.70;2.00;;;11.40;52.10;;;;;;5091144;28;20095;-63
2021/04/24 08:40:47;;;;;;;2.97;2.40;;;11.40;52.20;;;;;;5091824;28;20457;-63
2021/04/24 08:43:14;;;;;;;2.75;2.25;;;11.40;52.70;;;;;;5086632;28;20540;-63
2021/04/24 08:45:43;;;;;;;2.80;2.60;;;11.40;52.80;;;;;;5088010;28;20078;-63
2021/04/24 08:48:09;;;;;;;2.65;2.20;;;11.30;52.90;;;;;;5083100;28;20357;-63
2021/04/24 08:50:35;;;;;;;3.67;2.53;;;11.30;52.80;;;;;;5086523;28;20067;-63
2021/04/24 08:53:02;;;;;;;4.50;2.55;;;11.20;53.00;;;;;;5088939;28;20020;-63
2021/04/24 08:55:34;;;;;;;2.95;2.55;;;11.20;53.20;;;;;;5095864;28;20024;-63
2021/04/24 08:58:02;;;;;;;;;;;11.10;52.90;;;;;;5095670;28;20058;-63
2021/04/24 09:00:31;;;;;;;3.63;2.30;;;11.00;53.80;;;;;;5084064;28;19934;-63
2021/04/24 09:02:57;;;;;;;2.20;2.00;;;11.00;54.00;;;;;;5085393;28;20017;-63
2021/04/24 09:05:24;;;;;;;2.80;2.20;;;10.90;54.10;;;;;;5088201;28;20037;-63
2021/04/24 09:08:03;;;;;;;2.85;2.40;;;10.90;54.10;;;;;;5093935;28;20024;-63
2021/04/24 09:10:33;;;;;;;3.78;2.10;;;10.80;54.10;;;;;;5092943;28;20081;-63
2021/04/24 09:12:59;;;;;;;4.82;3.05;;;10.80;53.50;;;;;;5088638;28;20032;-63
2021/04/24 09:15:25;;;;;;;2.47;2.28;;;10.90;53.60;;;;;;5083143;28;20020;-63
2021/04/24 09:17:58;;;;;;;3.65;2.13;;;10.90;53.30;;;;;;5081225;28;20170;-63
2021/04/24 09:20:30;;;;;;;3.08;2.38;;;11.00;53.50;;;;;;5084006;28;20842;-63
2021/04/24 09:23:02;;;;;;;3.05;2.03;;;11.10;53.30;;;;;;5090363;28;20024;-63
2021/04/24 09:25:33;;;;;;;3.88;2.10;;;11.20;52.50;;;;;;5094802;28;20071;-63
2021/04/24 09:27:59;;;;;;;3.08;1.90;;;11.30;53.00;;;;;;5092868;28;20016;-63
2021/04/24 09:30:30;;;;;;;3.15;1.90;;;11.00;54.30;;;;;;5087027;28;20025;-63
2021/04/24 09:33:02;;;;;;;3.53;1.90;;;10.60;55.70;;;;;;5081894;28;20021;-63
2021/04/24 09:35:36;;;;;;;3.17;2.30;;;10.10;57.70;;;;;;5086010;28;20032;-63
2021/04/24 09:38:03;;;;;;;3.70;2.30;;;9.70;58.70;;;;;;5093533;28;20047;-63
2021/04/24 09:40:29;;;;;;;2.53;2.20;;;9.40;59.80;;;;;;5085980;28;20028;-64
2021/04/24 09:43:07;;;;;;;3.03;2.38;;;9.20;60.10;;;;;;5088644;28;20448;-64
2021/04/24 09:45:39;;;;;;;2.83;2.20;;;9.00;60.40;;;;;;5095498;28;20016;-64
2021/04/24 09:48:19;;;;;;;2.28;2.13;;;8.80;60.70;;;;;;5080531;28;20021;-64
2021/04/24 09:50:44;;;;;;;2.20;2.00;;;8.60;60.50;;;;;;5088948;28;20371;-64
2021/04/24 09:53:15;;;;;;;2.38;2.10;;;8.50;60.90;;;;;;5081629;28;20027;-63
2021/04/24 09:55:41;;;;;;;2.47;2.00;;;8.50;60.80;;;;;;5087162;28;20020;-64
2021/04/24 09:58:26;;;;;;;2.40;2.20;;;8.50;61.00;;;;;;5088259;28;20026;-63
2021/04/24 10:00:52;;;;;;;3.28;2.40;;;8.60;61.20;;;;;;5079707;28;20029;-64
2021/04/24 10:03:39;;;;;;;2.50;2.30;;;8.60;61.20;;;;;;5081607;28;20074;-64
2021/04/24 10:06:36;;;;;;;2.45;2.25;;;8.70;61.80;;;;;;5078097;28;20373;-63
2021/04/24 10:09:29;;;;;;;2.78;2.20;;;9.00;61.40;;;;;;5078297;28;20418;-64
2021/04/24 10:12:01;;;;;;;2.60;2.40;;;9.30;60.60;;;;;;5091096;28;20024;-64
2021/04/24 10:14:31;;;;;;;;;;;9.60;59.70;;;;;;5084006;28;20016;-64
2021/04/24 10:17:02;;;;;;;3.30;2.08;;;9.70;58.80;;;;;;5080243;28;19915;-64
2021/04/24 10:19:29;;;;;;;2.97;2.40;;;9.80;58.60;;;;;;5080889;28;20032;-64
2021/04/24 10:21:56;;;;;;;4.10;2.72;;;9.90;58.00;;;;;;5090752;28;20036;-64
2021/04/24 10:24:27;;;;;;;3.65;2.70;;;9.90;57.70;;;;;;5082252;28;20026;-64
2021/04/24 10:26:54;;;;;;;2.63;2.17;;;10.00;57.70;;;;;;5082506;28;20029;-63
2021/04/24 10:29:20;;;;;;;3.72;2.40;;;10.00;57.30;;;;;;5083073;28;20032;-64
2021/04/24 10:31:47;;;;;;;2.38;2.17;;;10.00;57.10;;;;;;5077351;28;20116;-64
2021/04/24 10:34:13;;;;;;;3.05;2.35;;;10.10;56.60;;;;;;5082505;28;20028;-64
2021/04/24 10:36:39;;;;;;;2.90;2.10;;;10.10;56.30;;;;;;5086169;28;20048;-64
2021/04/24 10:39:08;;;;;;;2.85;2.10;;;10.20;55.20;;;;;;5076325;28;20025;-64
2021/04/24 10:41:35;;;;;;;3.63;2.28;;;10.30;55.10;;;;;;5082187;28;20056;-63
2021/04/24 10:44:07;;;;;;;3.38;2.70;;;10.30;55.50;;;;;;5090900;28;20032;-64
2021/04/24 10:46:36;;;;;;;3.05;2.20;;;10.50;54.70;;;;;;5087071;28;20031;-64
2021/04/24 10:49:18;;;;;;;2.78;2.08;;;10.60;53.70;;;;;;5081601;28;20033;-63
2021/04/24 10:52:04;;;;;;;2.55;1.88;;;10.80;52.10;;;;;;5083407;28;20028;-64
2021/04/24 10:54:36;;;;;;;4.55;1.90;;;10.90;51.20;;;;;;5078688;28;20034;-64
2021/04/24 10:57:22;;;;;;;2.55;2.00;;;10.90;50.80;;;;;;5083756;28;20044;-64
2021/04/24 10:59:54;;;;;;;2.20;1.90;;;10.90;49.60;;;;;;5083599;28;20121;-64
2021/04/24 11:02:20;;;;;;;2.35;1.80;;;10.90;47.80;;;;;;5087576;28;20118;-64
2021/04/24 11:04:50;;;;;;;2.53;2.00;;;10.80;47.90;;;;;;5086683;28;20106;-64
2021/04/24 11:07:21;;;;;;;2.40;1.90;;;10.80;48.00;;;;;;5076439;28;22495;-63
2021/04/24 11:10:13;;;;;;;5.20;2.08;;;10.80;47.70;;;;;;5068499;28;20058;-63
2021/04/24 11:12:46;;;;;;;1.42;1.35;;;10.70;47.60;;;;;;5080753;28;20127;-63
2021/04/24 11:15:17;;;;;;;4.75;1.85;;;10.70;47.80;;;;;;5082476;28;20024;-63
2021/04/24 11:17:44;;;;;;;2.95;1.92;;;10.70;47.00;;;;;;5083463;28;20426;-63
2021/04/24 11:20:11;;;;;;;2.40;1.77;;;10.60;46.50;;;;;;5080905;28;20033;-64
2021/04/24 11:22:41;;;;;;;2.75;1.90;;;10.50;47.20;;;;;;5074223;28;20047;-63
2021/04/24 11:25:23;;;;;;;3.00;1.67;;;10.60;47.00;;;;;;5078058;28;20096;-64
2021/04/24 11:28:08;;;;;;;;;;;10.60;45.80;;;;;;5081611;28;20531;-64
2021/04/24 11:30:51;;;;;;;1.50;1.40;;;10.40;44.60;;;;;;5078746;28;20437;-63
2021/04/24 11:33:41;;;;;;;1.48;1.38;;;10.40;44.10;;;;;;5080152;28;20039;-64
2021/04/24 11:41:38;;;;;;;1.55;1.45;;;10.60;42.90;;;;;;5086222;28;20051;-64
2021/04/24 11:44:17;;;;;;;2.15;1.35;;;10.60;42.60;;;;;;5099351;28;20032;-64
2021/04/24 11:46:44;;;;;;;1.63;1.52;;;10.50;43.00;;;;;;5089934;28;20060;-63
2021/04/24 11:49:11;;;;;;;2.63;1.60;;;10.50;43.40;;;;;;5088476;28;20038;-63
2021/04/24 11:51:41;;;;;;;1.73;1.52;;;10.50;43.40;;;;;;5077589;28;20345;-63
2021/04/24 11:54:09;;;;;;;2.72;1.92;;;10.50;43.20;;;;;;5086368;28;20081;-63
2021/04/24 11:56:36;;;;;;;1.48;1.38;;;10.50;43.40;;;;;;5081671;28;21008;-63
2021/04/24 11:59:03;;;;;;;1.70;1.58;;;10.50;42.90;;;;;;5077732;28;20463;-63
2021/04/24 12:01:29;;;;;;;2.13;1.63;;;10.50;42.90;;;;;;5079426;28;20155;-63
2021/04/24 12:03:55;;;;;;;4.80;2.00;;;10.60;42.50;;;;;;5075178;28;20103;-63
2021/04/24 12:06:42;;;;;;;1.85;1.50;;;10.60;42.30;;;;;;5071983;28;20040;-63
2021/04/24 12:09:13;;;;;;;1.75;1.65;;;10.60;42.20;;;;;;5079283;28;20032;-63
2021/04/24 12:11:40;;;;;;;2.03;1.48;;;10.60;42.00;;;;;;5079283;28;20476;-63
2021/04/24 12:14:07;;;;;;;1.50;1.40;;;10.60;42.30;;;;;;5074909;28;20127;-64
2021/04/24 12:16:45;;;;;;;1.20;1.20;;;10.60;42.20;;;;;;5079651;28;20111;-64
2021/04/24 12:19:44;;;;;;;1.70;1.60;;;10.60;42.10;;;;;;5085169;28;20070;-64
2021/04/24 12:22:20;;;;;;;1.88;1.48;;;10.60;41.90;;;;;;5065738;28;20105;-64
2021/04/24 12:24:58;;;;;;;2.58;1.63;;;10.70;42.50;;;;;;5093762;28;20046;-64
2021/04/24 12:27:24;;;;;;;1.63;1.52;;;10.70;42.20;;;;;;5079770;28;20031;-64
2021/04/24 12:29:52;;;;;;;1.58;1.48;;;10.70;42.50;;;;;;5088725;28;20025;-64
2021/04/24 12:32:20;;;;;;;3.53;1.70;;;10.80;42.30;;;;;;5080277;28;20548;-65
2021/04/24 12:34:45;;;;;;;1.42;1.33;;;10.80;42.20;;;;;;5077669;28;20040;-65
2021/04/24 12:37:14;;;;;;;1.40;1.33;;;10.80;41.70;;;;;;5078443;28;20056;-64
2021/04/24 12:39:41;;;;;;;1.27;1.23;;;10.90;41.10;;;;;;5079966;28;20017;-64
2021/04/24 12:42:10;;;;;;;1.52;1.42;;;10.90;41.20;;;;;;5087884;28;20028;-64
2021/04/24 12:44:37;;;;;;;2.00;1.80;;;10.90;41.40;;;;;;5093029;28;20037;-64
2021/04/24 12:47:04;;;;;;;2.13;1.90;;;10.90;41.30;;;;;;5092658;28;20024;-64
2021/04/24 12:49:30;;;;;;;2.13;1.80;;;11.00;41.30;;;;;;5078963;28;20044;-62
2021/04/24 12:52:09;;;;;;;2.20;1.58;;;11.00;41.20;;;;;;5083011;28;20515;-62
2021/04/24 12:54:35;;;;;;;1.63;1.50;;;11.00;41.00;;;;;;5073368;28;20025;-65
2021/04/24 12:57:19;;;;;;;2.45;1.80;;;11.00;40.60;;;;;;5104289;28;20380;-64
2021/04/24 13:00:08;;;;;;;2.55;1.45;;;11.00;40.40;;;;;;5102748;28;20490;-64